sensor_id;sensor_type;location;lat;lon;timestamp;pressure;altitude;pressure_sealevel;temperature;humidity
21096;BME280;10706;49.036;12.112;2024-01-11T00:00:35;98724.13;;;-2.98;65.44
21096;BME280;10706;49.036;12.112;2024-01-11T00:03:01;98733.03;;;-3.01;65.07
21096;BME280;10706;49.036;12.112;2024-01-11T00:05:27;98733.88;;;-3.00;65.87
21096;BME280;10706;49.036;12.112;2024-01-11T00:07:53;98734.41;;;-3.18;66.21
21096;BME280;10706;49.036;12.112;2024-01-11T00:10:20;98727.69;;;-2.99;65.21
21096;BME280;10706;49.036;12.112;2024-01-11T00:12:46;98734.03;;;-3.13;66.12
21096;BME280;10706;49.036;12.112;2024-01-11T00:15:13;98728.16;;;-2.94;65.60
21096;BME280;10706;49.036;12.112;2024-01-11T00:17:39;98731.13;;;-2.99;65.39
21096;BME280;10706;49.036;12.112;2024-01-11T00:20:06;98723.69;;;-3.03;65.61
21096;BME280;10706;49.036;12.112;2024-01-11T00:22:32;98722.28;;;-3.07;65.39
21096;BME280;10706;49.036;12.112;2024-01-11T00:24:58;98725.75;;;-3.18;65.04
21096;BME280;10706;49.036;12.112;2024-01-11T00:27:24;98720.59;;;-3.08;65.71
21096;BME280;10706;49.036;12.112;2024-01-11T00:29:50;98714.22;;;-3.16;66.47
21096;BME280;10706;49.036;12.112;2024-01-11T00:32:15;98712.06;;;-3.10;65.02
21096;BME280;10706;49.036;12.112;2024-01-11T00:34:41;98714.38;;;-2.96;65.60
21096;BME280;10706;49.036;12.112;2024-01-11T00:37:07;98713.72;;;-3.09;65.86
21096;BME280;10706;49.036;12.112;2024-01-11T00:39:33;98721.44;;;-3.19;64.99
21096;BME280;10706;49.036;12.112;2024-01-11T00:41:58;98727.53;;;-3.19;64.92
21096;BME280;10706;49.036;12.112;2024-01-11T00:44:24;98720.75;;;-3.21;65.18
21096;BME280;10706;49.036;12.112;2024-01-11T00:46:50;98720.00;;;-3.44;65.98
21096;BME280;10706;49.036;12.112;2024-01-11T00:49:16;98726.88;;;-3.43;66.04
21096;BME280;10706;49.036;12.112;2024-01-11T00:51:42;98730.06;;;-3.51;67.00
21096;BME280;10706;49.036;12.112;2024-01-11T00:54:08;98738.03;;;-3.53;66.60
21096;BME280;10706;49.036;12.112;2024-01-11T00:56:34;98727.59;;;-3.53;66.85
21096;BME280;10706;49.036;12.112;2024-01-11T00:59:00;98728.44;;;-3.75;67.38
21096;BME280;10706;49.036;12.112;2024-01-11T01:01:25;98735.47;;;-3.75;67.07
21096;BME280;10706;49.036;12.112;2024-01-11T01:03:52;98734.47;;;-3.63;67.75
21096;BME280;10706;49.036;12.112;2024-01-11T01:06:18;98726.38;;;-3.37;66.17
21096;BME280;10706;49.036;12.112;2024-01-11T01:08:44;98723.94;;;-3.61;66.53
21096;BME280;10706;49.036;12.112;2024-01-11T01:11:10;98726.63;;;-3.52;67.64
21096;BME280;10706;49.036;12.112;2024-01-11T01:13:36;98735.16;;;-3.38;66.77
21096;BME280;10706;49.036;12.112;2024-01-11T01:16:03;98722.50;;;-3.54;67.91
21096;BME280;10706;49.036;12.112;2024-01-11T01:18:29;98726.03;;;-3.44;66.82
21096;BME280;10706;49.036;12.112;2024-01-11T01:20:55;98713.34;;;-3.48;66.74
21096;BME280;10706;49.036;12.112;2024-01-11T01:23:21;98719.41;;;-3.59;68.00
21096;BME280;10706;49.036;12.112;2024-01-11T01:25:48;98715.25;;;-3.50;67.29
21096;BME280;10706;49.036;12.112;2024-01-11T01:28:14;98716.66;;;-3.46;67.65
21096;BME280;10706;49.036;12.112;2024-01-11T01:30:40;98719.91;;;-3.77;66.67
21096;BME280;10706;49.036;12.112;2024-01-11T01:33:05;98730.34;;;-3.88;68.00
21096;BME280;10706;49.036;12.112;2024-01-11T01:35:31;98732.47;;;-3.59;67.74
21096;BME280;10706;49.036;12.112;2024-01-11T01:37:57;98734.59;;;-3.64;67.90
21096;BME280;10706;49.036;12.112;2024-01-11T01:40:23;98724.97;;;-3.41;67.20
21096;BME280;10706;49.036;12.112;2024-01-11T01:42:49;98735.28;;;-3.40;65.46
21096;BME280;10706;49.036;12.112;2024-01-11T01:45:15;98730.66;;;-3.47;65.94
21096;BME280;10706;49.036;12.112;2024-01-11T01:47:42;98733.28;;;-3.59;66.93
21096;BME280;10706;49.036;12.112;2024-01-11T01:50:10;98737.31;;;-3.43;66.01
21096;BME280;10706;49.036;12.112;2024-01-11T01:52:38;98746.81;;;-3.54;66.94
21096;BME280;10706;49.036;12.112;2024-01-11T01:55:06;98743.97;;;-3.50;66.13
21096;BME280;10706;49.036;12.112;2024-01-11T01:57:34;98739.81;;;-3.64;66.58
21096;BME280;10706;49.036;12.112;2024-01-11T02:00:01;98736.03;;;-3.49;66.26
21096;BME280;10706;49.036;12.112;2024-01-11T02:02:28;98737.22;;;-3.64;67.25
21096;BME280;10706;49.036;12.112;2024-01-11T02:04:56;98739.22;;;-3.68;67.22
21096;BME280;10706;49.036;12.112;2024-01-11T02:07:23;98742.44;;;-3.64;67.25
21096;BME280;10706;49.036;12.112;2024-01-11T02:09:51;98741.38;;;-3.62;67.13
21096;BME280;10706;49.036;12.112;2024-01-11T02:12:17;98735.78;;;-3.57;66.17
21096;BME280;10706;49.036;12.112;2024-01-11T02:14:43;98731.88;;;-3.63;67.04
21096;BME280;10706;49.036;12.112;2024-01-11T02:17:10;98732.59;;;-3.61;66.87
21096;BME280;10706;49.036;12.112;2024-01-11T02:19:35;98724.19;;;-3.87;67.91
21096;BME280;10706;49.036;12.112;2024-01-11T02:22:10;98733.41;;;-4.05;69.13
21096;BME280;10706;49.036;12.112;2024-01-11T02:24:38;98727.38;;;-3.83;67.26
21096;BME280;10706;49.036;12.112;2024-01-11T02:27:05;98728.47;;;-3.97;68.75
21096;BME280;10706;49.036;12.112;2024-01-11T02:29:31;98728.81;;;-3.91;66.75
21096;BME280;10706;49.036;12.112;2024-01-11T02:31:59;98723.94;;;-3.84;68.29
21096;BME280;10706;49.036;12.112;2024-01-11T02:34:29;98720.75;;;-4.10;68.99
21096;BME280;10706;49.036;12.112;2024-01-11T02:36:55;98720.03;;;-4.12;68.64
21096;BME280;10706;49.036;12.112;2024-01-11T02:39:23;98721.34;;;-3.84;68.04
21096;BME280;10706;49.036;12.112;2024-01-11T02:41:52;98716.72;;;-3.80;67.41
21096;BME280;10706;49.036;12.112;2024-01-11T02:44:18;98719.66;;;-3.74;68.00
21096;BME280;10706;49.036;12.112;2024-01-11T02:46:44;98716.84;;;-3.93;67.18
21096;BME280;10706;49.036;12.112;2024-01-11T02:49:09;98711.84;;;-3.85;67.78
21096;BME280;10706;49.036;12.112;2024-01-11T02:51:35;98705.19;;;-3.66;67.10
21096;BME280;10706;49.036;12.112;2024-01-11T02:54:02;98710.06;;;-3.62;66.76
21096;BME280;10706;49.036;12.112;2024-01-11T02:56:27;98716.22;;;-3.74;66.86
21096;BME280;10706;49.036;12.112;2024-01-11T02:58:53;98710.53;;;-3.79;67.12
21096;BME280;10706;49.036;12.112;2024-01-11T03:01:19;98702.59;;;-3.78;66.78
21096;BME280;10706;49.036;12.112;2024-01-11T03:03:45;98712.91;;;-3.87;67.27
21096;BME280;10706;49.036;12.112;2024-01-11T03:06:10;98707.94;;;-3.91;67.53
21096;BME280;10706;49.036;12.112;2024-01-11T03:08:36;98690.50;;;-3.79;67.78
21096;BME280;10706;49.036;12.112;2024-01-11T03:11:02;98690.50;;;-3.67;66.89
21096;BME280;10706;49.036;12.112;2024-01-11T03:13:28;98695.38;;;-3.85;66.83
21096;BME280;10706;49.036;12.112;2024-01-11T03:15:53;98695.75;;;-4.01;67.53
21096;BME280;10706;49.036;12.112;2024-01-11T03:18:19;98700.69;;;-4.10;68.39
21096;BME280;10706;49.036;12.112;2024-01-11T03:20:45;98696.78;;;-4.04;68.61
21096;BME280;10706;49.036;12.112;2024-01-11T03:23:11;98693.78;;;-4.67;70.31
21096;BME280;10706;49.036;12.112;2024-01-11T03:25:37;98695.78;;;-4.71;71.01
21096;BME280;10706;49.036;12.112;2024-01-11T03:28:03;98698.34;;;-4.35;70.14
21096;BME280;10706;49.036;12.112;2024-01-11T03:30:29;98694.88;;;-4.36;69.99
21096;BME280;10706;49.036;12.112;2024-01-11T03:32:55;98691.13;;;-4.20;68.57
21096;BME280;10706;49.036;12.112;2024-01-11T03:35:21;98690.88;;;-4.17;67.97
21096;BME280;10706;49.036;12.112;2024-01-11T03:37:47;98699.88;;;-3.99;69.18
21096;BME280;10706;49.036;12.112;2024-01-11T03:40:13;98683.63;;;-4.02;68.59
21096;BME280;10706;49.036;12.112;2024-01-11T03:42:40;98678.66;;;-4.05;68.27
21096;BME280;10706;49.036;12.112;2024-01-11T03:45:07;98679.03;;;-4.21;69.86
21096;BME280;10706;49.036;12.112;2024-01-11T03:47:33;98683.41;;;-4.22;69.29
21096;BME280;10706;49.036;12.112;2024-01-11T03:49:59;98690.03;;;-4.18;68.30
21096;BME280;10706;49.036;12.112;2024-01-11T03:52:24;98678.63;;;-4.39;68.70
21096;BME280;10706;49.036;12.112;2024-01-11T03:54:50;98683.53;;;-4.23;68.75
21096;BME280;10706;49.036;12.112;2024-01-11T03:57:16;98685.06;;;-4.21;69.33
21096;BME280;10706;49.036;12.112;2024-01-11T03:59:43;98683.53;;;-4.23;67.90
21096;BME280;10706;49.036;12.112;2024-01-11T04:02:09;98677.94;;;-4.41;68.78
21096;BME280;10706;49.036;12.112;2024-01-11T04:04:35;98677.91;;;-4.53;69.13
21096;BME280;10706;49.036;12.112;2024-01-11T04:07:01;98672.72;;;-4.41;69.03
21096;BME280;10706;49.036;12.112;2024-01-11T04:09:27;98679.72;;;-4.42;69.32
21096;BME280;10706;49.036;12.112;2024-01-11T04:11:52;98676.59;;;-4.58;70.12
21096;BME280;10706;49.036;12.112;2024-01-11T04:14:18;98680.78;;;-4.56;70.18
21096;BME280;10706;49.036;12.112;2024-01-11T04:16:44;98684.31;;;-4.45;69.85
21096;BME280;10706;49.036;12.112;2024-01-11T04:19:10;98688.91;;;-4.60;68.75
21096;BME280;10706;49.036;12.112;2024-01-11T04:21:36;98681.59;;;-4.44;69.18
21096;BME280;10706;49.036;12.112;2024-01-11T04:24:04;98678.19;;;-4.33;68.85
21096;BME280;10706;49.036;12.112;2024-01-11T04:26:32;98683.47;;;-4.69;69.36
21096;BME280;10706;49.036;12.112;2024-01-11T04:28:58;98681.47;;;-5.00;71.45
21096;BME280;10706;49.036;12.112;2024-01-11T04:31:26;98682.59;;;-4.92;72.35
21096;BME280;10706;49.036;12.112;2024-01-11T04:33:52;98683.19;;;-4.77;71.96
21096;BME280;10706;49.036;12.112;2024-01-11T04:36:17;98680.38;;;-4.74;71.08
21096;BME280;10706;49.036;12.112;2024-01-11T04:38:43;98686.75;;;-4.78;70.78
21096;BME280;10706;49.036;12.112;2024-01-11T04:41:13;98682.25;;;-4.76;70.99
21096;BME280;10706;49.036;12.112;2024-01-11T04:43:44;98688.75;;;-4.81;71.50
21096;BME280;10706;49.036;12.112;2024-01-11T04:46:20;98696.81;;;-4.73;70.88
21096;BME280;10706;49.036;12.112;2024-01-11T04:48:47;98700.97;;;-4.82;72.13
21096;BME280;10706;49.036;12.112;2024-01-11T04:51:16;98708.66;;;-4.80;71.36
21096;BME280;10706;49.036;12.112;2024-01-11T04:53:43;98710.97;;;-4.89;71.19
21096;BME280;10706;49.036;12.112;2024-01-11T04:56:11;98705.03;;;-5.02;72.44
21096;BME280;10706;49.036;12.112;2024-01-11T04:58:41;98708.09;;;-4.73;70.80
21096;BME280;10706;49.036;12.112;2024-01-11T05:01:15;98708.38;;;-4.53;70.55
21096;BME280;10706;49.036;12.112;2024-01-11T05:03:42;98711.94;;;-4.54;70.18
21096;BME280;10706;49.036;12.112;2024-01-11T05:06:08;98716.53;;;-4.58;69.40
21096;BME280;10706;49.036;12.112;2024-01-11T05:08:34;98722.00;;;-4.85;71.47
21096;BME280;10706;49.036;12.112;2024-01-11T05:11:00;98734.97;;;-4.72;70.82
21096;BME280;10706;49.036;12.112;2024-01-11T05:13:26;98730.28;;;-4.56;69.92
21096;BME280;10706;49.036;12.112;2024-01-11T05:15:52;98730.19;;;-4.90;71.19
21096;BME280;10706;49.036;12.112;2024-01-11T05:18:17;98734.72;;;-5.29;72.59
21096;BME280;10706;49.036;12.112;2024-01-11T05:20:43;98725.09;;;-5.15;72.05
21096;BME280;10706;49.036;12.112;2024-01-11T05:23:10;98731.06;;;-5.02;71.56
21096;BME280;10706;49.036;12.112;2024-01-11T05:25:38;98728.91;;;-5.32;72.68
21096;BME280;10706;49.036;12.112;2024-01-11T05:28:04;98745.81;;;-5.14;72.86
21096;BME280;10706;49.036;12.112;2024-01-11T05:30:33;98734.19;;;-5.58;73.92
21096;BME280;10706;49.036;12.112;2024-01-11T05:32:59;98728.50;;;-5.39;74.22
21096;BME280;10706;49.036;12.112;2024-01-11T05:35:25;98724.41;;;-4.82;71.78
21096;BME280;10706;49.036;12.112;2024-01-11T05:37:53;98725.94;;;-4.79;71.07
21096;BME280;10706;49.036;12.112;2024-01-11T05:40:22;98726.53;;;-4.76;70.45
21096;BME280;10706;49.036;12.112;2024-01-11T05:42:48;98728.81;;;-5.06;71.69
21096;BME280;10706;49.036;12.112;2024-01-11T05:45:14;98726.28;;;-4.84;71.23
21096;BME280;10706;49.036;12.112;2024-01-11T05:47:43;98720.59;;;-4.89;70.82
21096;BME280;10706;49.036;12.112;2024-01-11T05:50:10;98712.50;;;-4.97;71.81
21096;BME280;10706;49.036;12.112;2024-01-11T05:52:37;98711.03;;;-4.77;70.91
21096;BME280;10706;49.036;12.112;2024-01-11T05:55:03;98724.47;;;-4.95;71.35
21096;BME280;10706;49.036;12.112;2024-01-11T05:57:28;98726.88;;;-5.16;72.62
21096;BME280;10706;49.036;12.112;2024-01-11T05:59:54;98739.59;;;-5.24;72.88
21096;BME280;10706;49.036;12.112;2024-01-11T06:02:20;98730.81;;;-5.10;72.20
21096;BME280;10706;49.036;12.112;2024-01-11T06:04:48;98725.09;;;-5.15;71.99
21096;BME280;10706;49.036;12.112;2024-01-11T06:07:15;98721.81;;;-5.06;72.26
21096;BME280;10706;49.036;12.112;2024-01-11T06:09:41;98716.94;;;-4.75;71.75
21096;BME280;10706;49.036;12.112;2024-01-11T06:12:07;98713.53;;;-4.76;71.18
21096;BME280;10706;49.036;12.112;2024-01-11T06:14:33;98727.56;;;-4.54;71.13
21096;BME280;10706;49.036;12.112;2024-01-11T06:16:58;98723.31;;;-4.44;70.04
21096;BME280;10706;49.036;12.112;2024-01-11T06:19:24;98723.78;;;-4.50;70.04
21096;BME280;10706;49.036;12.112;2024-01-11T06:21:50;98714.84;;;-4.70;71.44
21096;BME280;10706;49.036;12.112;2024-01-11T06:24:16;98720.47;;;-4.52;70.37
21096;BME280;10706;49.036;12.112;2024-01-11T06:26:42;98723.91;;;-4.87;70.51
21096;BME280;10706;49.036;12.112;2024-01-11T06:29:08;98720.38;;;-4.86;71.07
21096;BME280;10706;49.036;12.112;2024-01-11T06:31:35;98715.56;;;-4.68;70.55
21096;BME280;10706;49.036;12.112;2024-01-11T06:34:01;98724.81;;;-4.53;70.89
21096;BME280;10706;49.036;12.112;2024-01-11T06:36:27;98729.09;;;-4.87;72.05
21096;BME280;10706;49.036;12.112;2024-01-11T06:38:53;98729.66;;;-4.71;70.09
21096;BME280;10706;49.036;12.112;2024-01-11T06:41:21;98730.63;;;-4.49;71.14
21096;BME280;10706;49.036;12.112;2024-01-11T06:43:50;98740.84;;;-4.46;70.15
21096;BME280;10706;49.036;12.112;2024-01-11T06:46:20;98739.28;;;-4.60;70.27
21096;BME280;10706;49.036;12.112;2024-01-11T06:48:47;98747.91;;;-4.59;70.27
21096;BME280;10706;49.036;12.112;2024-01-11T06:51:16;98751.34;;;-4.94;71.00
21096;BME280;10706;49.036;12.112;2024-01-11T06:53:42;98763.22;;;-5.14;71.72
21096;BME280;10706;49.036;12.112;2024-01-11T06:56:19;98770.50;;;-5.19;72.45
21096;BME280;10706;49.036;12.112;2024-01-11T06:58:46;98764.97;;;-4.91;71.72
21096;BME280;10706;49.036;12.112;2024-01-11T07:01:12;98768.44;;;-5.27;71.56
21096;BME280;10706;49.036;12.112;2024-01-11T07:03:39;98751.56;;;-4.97;71.69
21096;BME280;10706;49.036;12.112;2024-01-11T07:06:05;98749.78;;;-4.73;70.74
21096;BME280;10706;49.036;12.112;2024-01-11T07:08:31;98761.94;;;-4.73;69.85
21096;BME280;10706;49.036;12.112;2024-01-11T07:11:02;98764.34;;;-4.94;70.79
21096;BME280;10706;49.036;12.112;2024-01-11T07:13:29;98766.03;;;-4.93;71.83
21096;BME280;10706;49.036;12.112;2024-01-11T07:15:57;98770.00;;;-5.00;70.78
21096;BME280;10706;49.036;12.112;2024-01-11T07:18:24;98772.41;;;-4.97;70.68
21096;BME280;10706;49.036;12.112;2024-01-11T07:20:52;98785.06;;;-5.17;71.10
21096;BME280;10706;49.036;12.112;2024-01-11T07:23:18;98789.88;;;-4.99;71.02
21096;BME280;10706;49.036;12.112;2024-01-11T07:25:44;98785.28;;;-4.96;70.93
21096;BME280;10706;49.036;12.112;2024-01-11T07:28:12;98797.38;;;-4.95;70.55
21096;BME280;10706;49.036;12.112;2024-01-11T07:30:40;98799.28;;;-4.73;70.82
21096;BME280;10706;49.036;12.112;2024-01-11T07:33:07;98801.94;;;-4.85;70.79
21096;BME280;10706;49.036;12.112;2024-01-11T07:35:33;98787.72;;;-5.30;72.12
21096;BME280;10706;49.036;12.112;2024-01-11T07:37:58;98796.75;;;-5.22;72.44
21096;BME280;10706;49.036;12.112;2024-01-11T07:40:24;98800.47;;;-4.65;70.72
21096;BME280;10706;49.036;12.112;2024-01-11T07:42:50;98802.69;;;-4.48;70.01
21096;BME280;10706;49.036;12.112;2024-01-11T07:45:16;98798.97;;;-4.57;70.11
21096;BME280;10706;49.036;12.112;2024-01-11T07:47:43;98802.19;;;-4.53;69.62
21096;BME280;10706;49.036;12.112;2024-01-11T07:50:09;98792.16;;;-4.46;70.20
21096;BME280;10706;49.036;12.112;2024-01-11T07:52:36;98802.72;;;-4.37;69.08
21096;BME280;10706;49.036;12.112;2024-01-11T07:55:03;98806.13;;;-4.36;70.29
21096;BME280;10706;49.036;12.112;2024-01-11T07:57:34;98809.09;;;-4.41;70.13
21096;BME280;10706;49.036;12.112;2024-01-11T08:00:00;98812.59;;;-4.18;69.71
21096;BME280;10706;49.036;12.112;2024-01-11T08:02:27;98803.34;;;-4.22;70.33
21096;BME280;10706;49.036;12.112;2024-01-11T08:04:53;98809.28;;;-4.20;69.78
21096;BME280;10706;49.036;12.112;2024-01-11T08:07:19;98807.63;;;-3.98;70.07
21096;BME280;10706;49.036;12.112;2024-01-11T08:09:45;98804.72;;;-3.82;70.02
21096;BME280;10706;49.036;12.112;2024-01-11T08:12:11;98800.06;;;-4.01;69.11
21096;BME280;10706;49.036;12.112;2024-01-11T08:14:39;98812.59;;;-4.18;70.05
21096;BME280;10706;49.036;12.112;2024-01-11T08:17:05;98813.78;;;-4.22;69.74
21096;BME280;10706;49.036;12.112;2024-01-11T08:19:31;98815.28;;;-3.61;68.37
21096;BME280;10706;49.036;12.112;2024-01-11T08:21:58;98826.09;;;-3.55;68.41
21096;BME280;10706;49.036;12.112;2024-01-11T08:24:24;98834.94;;;-3.91;68.33
21096;BME280;10706;49.036;12.112;2024-01-11T08:26:51;98831.69;;;-4.06;68.65
21096;BME280;10706;49.036;12.112;2024-01-11T08:29:17;98839.63;;;-4.07;70.29
21096;BME280;10706;49.036;12.112;2024-01-11T08:31:46;98840.28;;;-3.70;69.52
21096;BME280;10706;49.036;12.112;2024-01-11T08:34:12;98847.78;;;-3.65;68.73
21096;BME280;10706;49.036;12.112;2024-01-11T08:36:41;98847.16;;;-3.92;68.86
21096;BME280;10706;49.036;12.112;2024-01-11T08:39:07;98847.13;;;-4.03;70.74
21096;BME280;10706;49.036;12.112;2024-01-11T08:41:37;98843.31;;;-4.10;70.48
21096;BME280;10706;49.036;12.112;2024-01-11T08:44:06;98838.00;;;-3.97;71.15
21096;BME280;10706;49.036;12.112;2024-01-11T08:46:32;98843.03;;;-3.72;69.49
21096;BME280;10706;49.036;12.112;2024-01-11T08:49:01;98838.38;;;-3.68;69.71
21096;BME280;10706;49.036;12.112;2024-01-11T08:51:32;98832.34;;;-3.68;69.44
21096;BME280;10706;49.036;12.112;2024-01-11T08:53:58;98822.50;;;-3.31;69.22
21096;BME280;10706;49.036;12.112;2024-01-11T08:56:24;98806.56;;;-3.05;67.77
21096;BME280;10706;49.036;12.112;2024-01-11T08:58:51;98801.34;;;-3.05;68.94
21096;BME280;10706;49.036;12.112;2024-01-11T09:01:20;98804.59;;;-2.81;67.75
21096;BME280;10706;49.036;12.112;2024-01-11T09:03:46;98803.09;;;-2.62;66.93
21096;BME280;10706;49.036;12.112;2024-01-11T09:06:16;98803.63;;;-2.80;67.11
21096;BME280;10706;49.036;12.112;2024-01-11T09:08:42;98805.25;;;-2.67;66.90
21096;BME280;10706;49.036;12.112;2024-01-11T09:11:08;98801.50;;;-2.54;65.60
21096;BME280;10706;49.036;12.112;2024-01-11T09:13:36;98801.38;;;-2.52;66.51
21096;BME280;10706;49.036;12.112;2024-01-11T09:16:02;98793.38;;;-2.39;64.61
21096;BME280;10706;49.036;12.112;2024-01-11T09:18:32;98783.25;;;-2.32;65.03
21096;BME280;10706;49.036;12.112;2024-01-11T09:20:58;98794.78;;;-2.35;65.42
21096;BME280;10706;49.036;12.112;2024-01-11T09:23:24;98785.91;;;-2.44;65.84
21096;BME280;10706;49.036;12.112;2024-01-11T09:25:50;98791.94;;;-2.64;66.62
21096;BME280;10706;49.036;12.112;2024-01-11T09:28:16;98797.56;;;-2.48;65.81
21096;BME280;10706;49.036;12.112;2024-01-11T09:30:42;98782.97;;;-2.29;66.06
21096;BME280;10706;49.036;12.112;2024-01-11T09:33:08;98780.75;;;-1.82;65.52
21096;BME280;10706;49.036;12.112;2024-01-11T09:35:37;98761.75;;;-1.84;64.79
21096;BME280;10706;49.036;12.112;2024-01-11T09:38:03;98766.44;;;-2.09;65.83
21096;BME280;10706;49.036;12.112;2024-01-11T09:40:29;98759.78;;;-1.92;65.47
21096;BME280;10706;49.036;12.112;2024-01-11T09:43:03;98748.63;;;-1.94;64.73
21096;BME280;10706;49.036;12.112;2024-01-11T09:45:30;98747.72;;;-1.83;65.32
21096;BME280;10706;49.036;12.112;2024-01-11T09:47:56;98766.44;;;-1.07;62.82
21096;BME280;10706;49.036;12.112;2024-01-11T09:50:22;98774.16;;;-0.66;60.14
21096;BME280;10706;49.036;12.112;2024-01-11T09:52:52;98779.53;;;-0.97;61.30
21096;BME280;10706;49.036;12.112;2024-01-11T09:55:19;98771.59;;;-1.26;62.53
21096;BME280;10706;49.036;12.112;2024-01-11T09:57:56;98757.69;;;-1.17;62.79
21096;BME280;10706;49.036;12.112;2024-01-11T10:00:25;98747.53;;;-1.01;62.11
21096;BME280;10706;49.036;12.112;2024-01-11T10:02:53;98744.88;;;-0.32;59.98
21096;BME280;10706;49.036;12.112;2024-01-11T10:05:19;98751.03;;;0.06;58.12
21096;BME280;10706;49.036;12.112;2024-01-11T10:07:45;98757.75;;;-0.59;60.24
21096;BME280;10706;49.036;12.112;2024-01-11T10:10:13;98756.69;;;0.01;58.68
21096;BME280;10706;49.036;12.112;2024-01-11T10:12:42;98768.94;;;0.20;58.34
21096;BME280;10706;49.036;12.112;2024-01-11T10:15:12;98775.00;;;0.30;57.79
21096;BME280;10706;49.036;12.112;2024-01-11T10:17:43;98775.44;;;0.16;58.09
21096;BME280;10706;49.036;12.112;2024-01-11T10:20:13;98786.94;;;0.05;58.03
21096;BME280;10706;49.036;12.112;2024-01-11T10:22:43;98787.47;;;0.09;59.05
21096;BME280;10706;49.036;12.112;2024-01-11T10:25:13;98801.47;;;-0.10;58.55
21096;BME280;10706;49.036;12.112;2024-01-11T10:27:49;98780.88;;;0.05;59.30
21096;BME280;10706;49.036;12.112;2024-01-11T10:30:17;98781.81;;;0.04;59.01
21096;BME280;10706;49.036;12.112;2024-01-11T10:32:50;98785.94;;;0.16;58.33
21096;BME280;10706;49.036;12.112;2024-01-11T10:35:35;98761.81;;;0.03;59.20
21096;BME280;10706;49.036;12.112;2024-01-11T10:38:08;98765.94;;;0.05;58.72
21096;BME280;10706;49.036;12.112;2024-01-11T10:40:38;98766.44;;;0.28;58.08
21096;BME280;10706;49.036;12.112;2024-01-11T10:51:01;98765.72;;;0.36;57.50
21096;BME280;10706;49.036;12.112;2024-01-11T10:53:52;98761.91;;;0.48;58.38
21096;BME280;10706;49.036;12.112;2024-01-11T10:56:22;98779.97;;;0.24;59.32
21096;BME280;10706;49.036;12.112;2024-01-11T10:58:50;98780.28;;;0.11;58.19
21096;BME280;10706;49.036;12.112;2024-01-11T11:01:26;98802.84;;;0.51;57.28
21096;BME280;10706;49.036;12.112;2024-01-11T11:04:03;98801.22;;;0.40;58.86
21096;BME280;10706;49.036;12.112;2024-01-11T11:09:53;98784.41;;;0.61;57.72
21096;BME280;10706;49.036;12.112;2024-01-11T11:12:21;98777.34;;;0.61;59.09
21096;BME280;10706;49.036;12.112;2024-01-11T11:14:48;98761.84;;;0.86;57.01
21096;BME280;10706;49.036;12.112;2024-01-11T11:17:18;98773.03;;;0.60;57.16
21096;BME280;10706;49.036;12.112;2024-01-11T11:20:10;98771.06;;;0.44;57.15
21096;BME280;10706;49.036;12.112;2024-01-11T11:25:11;98745.25;;;0.85;56.63
21096;BME280;10706;49.036;12.112;2024-01-11T11:27:53;98751.13;;;0.97;55.96
21096;BME280;10706;49.036;12.112;2024-01-11T11:30:20;98755.84;;;0.75;56.25
21096;BME280;10706;49.036;12.112;2024-01-11T11:32:46;98760.56;;;0.72;56.43
21096;BME280;10706;49.036;12.112;2024-01-11T11:35:12;98749.38;;;0.88;56.22
21096;BME280;10706;49.036;12.112;2024-01-11T11:37:39;98763.00;;;1.01;55.71
21096;BME280;10706;49.036;12.112;2024-01-11T11:40:09;98766.09;;;1.32;54.05
21096;BME280;10706;49.036;12.112;2024-01-11T11:42:39;98765.56;;;1.29;55.22
21096;BME280;10706;49.036;12.112;2024-01-11T11:45:06;98757.22;;;0.97;55.26
21096;BME280;10706;49.036;12.112;2024-01-11T11:47:37;98747.06;;;0.85;56.51
21096;BME280;10706;49.036;12.112;2024-01-11T11:50:08;98740.50;;;0.43;58.59
21096;BME280;10706;49.036;12.112;2024-01-11T11:52:39;98727.53;;;0.87;57.09
21096;BME280;10706;49.036;12.112;2024-01-11T11:55:09;98722.63;;;0.47;58.08
21096;BME280;10706;49.036;12.112;2024-01-11T11:57:43;98713.94;;;1.10;57.03
21096;BME280;10706;49.036;12.112;2024-01-11T12:00:11;98719.53;;;0.61;57.35
21096;BME280;10706;49.036;12.112;2024-01-11T12:02:41;98729.09;;;0.62;57.03
21096;BME280;10706;49.036;12.112;2024-01-11T12:05:07;98734.91;;;1.38;56.12
21096;BME280;10706;49.036;12.112;2024-01-11T12:07:36;98729.97;;;1.79;54.78
21096;BME280;10706;49.036;12.112;2024-01-11T12:10:03;98732.94;;;1.22;55.92
21096;BME280;10706;49.036;12.112;2024-01-11T12:12:35;98740.03;;;1.39;56.12
21096;BME280;10706;49.036;12.112;2024-01-11T12:15:04;98731.13;;;1.58;54.81
21096;BME280;10706;49.036;12.112;2024-01-11T12:17:31;98731.44;;;1.55;55.03
21096;BME280;10706;49.036;12.112;2024-01-11T12:20:00;98735.88;;;1.54;55.20
21096;BME280;10706;49.036;12.112;2024-01-11T12:22:26;98728.78;;;1.55;54.39
21096;BME280;10706;49.036;12.112;2024-01-11T12:24:52;98725.28;;;1.10;56.15
21096;BME280;10706;49.036;12.112;2024-01-11T12:27:19;98723.34;;;1.12;57.24
21096;BME280;10706;49.036;12.112;2024-01-11T12:29:46;98720.03;;;1.72;55.79
21096;BME280;10706;49.036;12.112;2024-01-11T12:32:13;98713.06;;;1.89;54.08
21096;BME280;10706;49.036;12.112;2024-01-11T12:34:42;98710.63;;;2.22;52.41
21096;BME280;10706;49.036;12.112;2024-01-11T12:37:09;98706.03;;;2.32;54.29
21096;BME280;10706;49.036;12.112;2024-01-11T12:39:38;98700.59;;;2.85;50.85
21096;BME280;10706;49.036;12.112;2024-01-11T12:42:05;98698.81;;;3.84;50.46
21096;BME280;10706;49.036;12.112;2024-01-11T12:44:31;98693.38;;;2.36;51.18
21096;BME280;10706;49.036;12.112;2024-01-11T12:46:58;98681.31;;;2.76;51.23
21096;BME280;10706;49.036;12.112;2024-01-11T12:49:24;98681.53;;;3.57;51.28
21096;BME280;10706;49.036;12.112;2024-01-11T12:51:51;98682.69;;;4.58;47.61
21096;BME280;10706;49.036;12.112;2024-01-11T12:54:17;98672.81;;;4.12;46.93
21096;BME280;10706;49.036;12.112;2024-01-11T12:56:47;98679.28;;;4.49;47.35
21096;BME280;10706;49.036;12.112;2024-01-11T12:59:13;98685.19;;;4.20;46.96
21096;BME280;10706;49.036;12.112;2024-01-11T13:01:42;98684.19;;;4.21;48.29
21096;BME280;10706;49.036;12.112;2024-01-11T13:04:11;98685.50;;;4.87;47.14
21096;BME280;10706;49.036;12.112;2024-01-11T13:06:41;98683.00;;;5.93;44.72